22:44
Airports
History
Links
Donate
Help keep this website running!
PayPal
Bitcoin
This page is community maintained. The information is intended for PC simulator navigation or reference.
Always use approved charts for navigation.
60A
Brundidge Municipal
Brundidge Municipal (60A)
Brundidge, Alabama, United States (36010)
(U)
Lat/Lng:31° 44' 0.58" N / 85° 48' 16.8" W
31.733494 / -85.804668
Elevation:476'ft / 145mMSL
ID / ICAO:60A
Runways:1
Longest:(05-23) 917.3m / 3,010ft Asphalt
Distance To
Airport ID:
Nearby VORs <50NM
Nearby NDBs
Nearby WeatherUpdated 08-22-17 21:53 GMT
Nearby weather at KTOI, Troy Muni located 15.0 nautical miles from 60A
Altimeter: 30.02
Visibility: 10.0 statute miles
Wind: 5 knots (220°)
Temp: 33°c 91°f
Humidity: 52.6%

METAR: KTOI 222153Z AUTO 22005KT 10SM CLR 33/22 A3002 RMK AO2 SLP160 T03280217

(Powered by phpweather)
Runway 05 / 23
Dimensions:917.3 x 24.4m 3010' x 80'ft
Surface:Asphalt
Edge Lights:Medium intensity
Runway 05 [A]Runway 23 [B]
Heading:049°TH 229°TH
Lat:
Lng:
31° 43' 51.06"N
85° 48' 30.14"W
31° 44' 10.1"N
85° 48' 3.46"W
User Notes and Comments
Google Map
Nearby Airports
(C) Troy Muni 15.0 NM
KTOI (WX) NW 305°
(U) Clayton Muni 21.4 NM
11A ENE 61°
(U) Blackwell Field 23.5 NM
71J SSE 152°
(U) Frank Sikes 26.9 NM
04A W 270°
(U) Carl Folsom 28.0 NM
14J SW 216°
(U) Franklin Field 29.9 NM
07A N 359°
(C) Enterprise Muni 30.5 NM
KEDN S 190°
VFR Chart
Flight Planning at SkyVector.com